FW7012 Weather Reports


Display with metric or nautical units.
time (UTC)temp
F
wind
direction
speed
MPH
gust
MPH
rain 1hr
in
rain 24hr
in
rain mn
in
humidity
%
barometer
mb
20221002025425 55 0 0.0 0.0 0.00 0.00 0.00 88 1017.2
20221002024923 55 0 0.0 0.0 0.00 0.00 0.00 88 1017.6
20221002024423 55 0 0.0 0.0 0.00 0.00 0.00 88 1017.6
20221002023923 55 0 0.0 0.0 0.00 0.00 0.00 88 1017.2
20221002023422 56 0 0.0 0.0 0.00 0.00 0.00 88 1017.2
20221002022420 56 0 0.0 0.0 0.00 0.00 0.00 89 1017.2
20221002021920 56 0 0.0 0.0 0.00 0.00 0.00 89 1017.6
20221002021419 56 0 0.0 0.0 0.00 0.00 0.00 89 1017.6
20221002020918 56 0 0.0 0.0 0.00 0.00 0.00 89 1017.6
20221002020417 57 0 0.0 0.0 0.00 0.00 0.00 90 1017.6
20221002015918 57 0 1.0 3.0 0.00 0.00 0.00 90 1017.6
20221002015417 57 0 1.0 3.0 0.00 0.00 0.00 90 1017.6
20221002014536 57 308 0.0 1.0 0.00 0.00 0.00 90 1017.6
20221002012956 57 0 1.0 4.0 0.00 0.00 0.00 91 1017.2
20221002011911 57 0 0.0 1.0 0.00 0.00 0.00 91 1017.6
20221002011410 58 0 1.0 4.0 0.00 0.00 0.00 91 1017.6
20221002010910 58 0 1.0 4.0 0.00 0.00 0.00 91 1017.6
20221002010409 58 0 0.0 1.0 0.00 0.00 0.00 90 1017.6
20221002005909 58 0 0.0 1.0 0.00 0.00 0.00 91 1017.6
20221002005409 58 0 3.0 7.0 0.00 0.00 0.00 91 1017.6
20221002004907 58 0 1.0 3.0 0.00 0.00 0.00 91 1017.2
20221002004405 58 0 1.0 5.0 0.00 0.00 0.00 90 1017.2
20221002003905 58 88 1.0 3.0 0.00 0.00 0.00 90 1017.2
20221002003404 58 0 3.0 4.0 0.00 0.00 0.00 90 1017.2
20221002002904 59 0 1.0 4.0 0.00 0.00 0.00 90 1017.2
20221002002404 59 0 3.0 7.0 0.00 0.00 0.00 90 1017.2
20221002001904 59 0 3.0 5.0 0.00 0.00 0.00 89 1017.2
20221002001403 59 0 4.0 8.0 0.00 0.00 0.00 89 1017.2
20221002000902 59 44 1.0 4.0 0.00 0.00 0.00 89 1017.2
20221002000404 59 0 3.0 11.0 0.00 0.00 0.00 88 1017.2
20221001235900 59 0 3.0 5.0 0.00 0.00 0.00 88 1017.6
20221001234858 59 44 1.0 3.0 0.00 0.00 0.00 87 1017.2
20221001234357 60 0 3.0 5.0 0.00 0.00 0.00 86 1017.2
20221001233856 60 88 4.0 7.0 0.00 0.00 0.00 85 1017.2
20221001233356 60 0 4.0 5.0 0.00 0.00 0.00 85 1017.2
20221001232855 60 44 4.0 8.0 0.00 0.00 0.00 84 1016.8
20221001232355 60 0 1.0 4.0 0.00 0.00 0.00 84 1017.2
20221001231854 60 0 3.0 7.0 0.00 0.00 0.00 84 1017.2
20221001231352 60 44 1.0 4.0 0.00 0.00 0.00 83 1017.2
20221001230851 60 0 3.0 5.0 0.00 0.00 0.00 83 1016.8
20221001230351 60 0 0.0 3.0 0.00 0.00 0.00 83 1016.5
20221001225851 60 0 1.0 5.0 0.00 0.00 0.00 83 1016.8
20221001225349 61 0 3.0 5.0 0.00 0.00 0.00 83 1016.5
20221001223348 61 0 3.0 7.0 0.00 0.00 0.00 82 1016.8
20221001222848 61 44 4.0 8.0 0.00 0.00 0.00 81 1016.5
20221001222346 61 44 3.0 5.0 0.00 0.00 0.00 81 1016.5
20221001221846 61 0 1.0 5.0 0.00 0.00 0.00 81 1016.5
20221001221345 62 0 1.0 4.0 0.00 0.00 0.00 80 1016.5
20221001220843 62 44 1.0 4.0 0.00 0.00 0.00 80 1016.5
20221001220344 62 44 0.0 3.0 0.00 0.00 0.00 80 1016.5
20221001215842 62 308 1.0 4.0 0.00 0.00 0.00 79 1016.5
20221001215341 62 0 1.0 3.0 0.00 0.00 0.00 79 1016.2
20221001214338 62 0 3.0 4.0 0.00 0.00 0.00 79 1016.2
20221001213838 62 44 1.0 4.0 0.00 0.00 0.00 80 1016.2
20221001213337 62 0 1.0 3.0 0.00 0.00 0.00 79 1016.2
20221001212836 62 0 3.0 8.0 0.00 0.00 0.00 79 1016.2
20221001212335 62 0 3.0 5.0 0.00 0.00 0.00 79 1016.5
20221001211833 62 0 3.0 4.0 0.00 0.00 0.00 79 1016.2
20221001211333 62 44 4.0 11.0 0.00 0.00 0.00 78 1016.2
20221001210832 62 0 1.0 4.0 0.00 0.00 0.00 79 1016.2
20221001210331 62 0 1.0 4.0 0.00 0.00 0.00 79 1016.5
20221001205830 62 0 4.0 8.0 0.00 0.00 0.00 79 1016.2
20221001205330 62 308 1.0 4.0 0.00 0.00 0.00 78 1016.2
20221001204829 62 0 1.0 4.0 0.00 0.00 0.00 78 1016.2
20221001204329 62 0 1.0 4.0 0.00 0.00 0.00 78 1016.2
20221001203829 62 44 1.0 4.0 0.00 0.00 0.00 78 1016.2
20221001203329 62 44 0.0 4.0 0.00 0.00 0.00 79 1016.2
20221001202829 62 0 4.0 8.0 0.00 0.00 0.00 78 1016.2
20221001202329 62 0 1.0 3.0 0.00 0.00 0.00 78 1016.2
20221001201827 62 0 1.0 4.0 0.00 0.00 0.00 78 1016.2
20221001201327 63 0 0.0 3.0 0.00 0.00 0.00 77 1016.2
20221001200825 63 0 1.0 5.0 0.00 0.00 0.00 77 1016.2
20221001200325 63 0 4.0 8.0 0.00 0.00 0.00 77 1016.2
20221001195823 63 0 3.0 8.0 0.00 0.00 0.00 77 1015.8
20221001195323 63 0 1.0 5.0 0.00 0.00 0.00 77 1015.8
20221001194821 63 44 3.0 5.0 0.00 0.00 0.00 76 1015.8
20221001194319 63 0 1.0 4.0 0.00 0.00 0.00 76 1016.2
20221001193819 63 88 3.0 5.0 0.00 0.00 0.00 76 1015.8
20221001193318 64 0 1.0 3.0 0.00 0.00 0.00 76 1015.8
20221001192818 64 0 3.0 5.0 0.00 0.00 0.00 76 1015.8
20221001192318 64 0 0.0 3.0 0.00 0.00 0.00 75 1015.8
20221001191817 64 0 3.0 5.0 0.00 0.00 0.00 76 1015.8
20221001191317 64 44 0.0 3.0 0.00 0.00 0.00 76 1015.8
20221001190816 64 0 4.0 7.0 0.00 0.00 0.00 75 1015.8
20221001190316 64 0 3.0 8.0 0.00 0.00 0.00 75 1015.8
20221001185814 64 0 3.0 5.0 0.00 0.00 0.00 75 1015.8
20221001185313 64 0 3.0 5.0 0.00 0.00 0.00 74 1015.8
20221001184812 64 308 4.0 8.0 0.00 0.00 0.00 74 1015.8
20221001184311 64 0 0.0 1.0 0.00 0.00 0.00 74 1015.5
20221001183810 64 0 1.0 3.0 0.00 0.00 0.00 74 1015.8
20221001183309 64 0 3.0 5.0 0.00 0.00 0.00 73 1015.8
20221001182809 65 308 3.0 7.0 0.00 0.00 0.00 73 1015.8
20221001182307 65 308 1.0 3.0 0.00 0.00 0.00 73 1015.8
20221001181806 65 0 3.0 8.0 0.00 0.00 0.00 72 1015.5
20221001181305 65 0 4.0 11.0 0.00 0.00 0.00 72 1015.5
20221001180804 65 0 1.0 3.0 0.00 0.00 0.00 72 1015.5
20221001180304 65 0 4.0 9.0 0.00 0.00 0.00 72 1015.5
20221001175802 65 308 5.0 8.0 0.00 0.00 0.00 72 1015.5
20221001175304 65 0 5.0 9.0 0.00 0.00 0.00 72 1015.5
20221001174759 65 308 1.0 4.0 0.00 0.00 0.00 72 1015.5
20221001174259 65 0 1.0 4.0 0.00 0.00 0.00 71 1015.5
20221001173758 65 0 4.0 7.0 0.00 0.00 0.00 71 1015.5
20221001173259 65 0 3.0 7.0 0.00 0.00 0.00 71 1015.5
20221001172758 65 88 4.0 7.0 0.00 0.00 0.00 71 1015.5
20221001172257 65 0 3.0 7.0 0.00 0.00 0.00 71 1015.5
20221001171755 65 44 3.0 4.0 0.00 0.00 0.00 71 1015.5
20221001171254 66 0 3.0 4.0 0.00 0.00 0.00 70 1015.5
20221001170752 66 0 0.0 3.0 0.00 0.00 0.00 70 1015.5
20221001170252 66 0 1.0 3.0 0.00 0.00 0.00 71 1015.5
20221001165750 66 44 1.0 7.0 0.00 0.00 0.00 70 1015.5
20221001165248 66 308 4.0 7.0 0.00 0.00 0.00 70 1015.5
20221001164748 66 308 3.0 4.0 0.00 0.00 0.00 71 1015.1
20221001164247 66 0 1.0 4.0 0.00 0.00 0.00 72 1015.1
20221001163746 65 0 1.0 4.0 0.00 0.00 0.00 71 1015.1
20221001163245 65 308 4.0 9.0 0.00 0.00 0.00 72 1015.1
20221001162745 65 0 3.0 5.0 0.00 0.00 0.00 71 1015.1
20221001162245 65 264 1.0 4.0 0.00 0.00 0.00 71 1015.1
20221001161745 65 0.0 0.0 0.00 0.00 0.00 72 1015.1
20221001161244 65 0.0 0.0 0.00 0.00 0.00 71 1015.1
20221001160743 65 0.0 0.0 0.00 0.00 0.00 72 1015.1
20221001160242 65 0.0 0.0 0.00 0.00 0.00 71 1015.1
20221001155742 65 0 1.0 4.0 0.00 0.00 0.00 72 1015.5
20221001155242 65 0 1.0 4.0 0.00 0.00 0.00 72 1015.1
20221001154740 64 264 1.0 4.0 0.00 0.00 0.00 73 1015.1
20221001154239 64 0.0 0.0 0.00 0.00 0.00 71 1015.1
20221001153738 65 0.0 0.0 0.00 0.00 0.00 74 1015.1
20221001153237 64 0.0 0.0 0.00 0.00 0.00 74 1015.1
20221001152736 64 176 0.0 1.0 0.00 0.00 0.00 74 1015.1
20221001152235 64 176 0.0 1.0 0.00 0.00 0.00 76 1015.1
20221001151734 64 88 0.0 0.0 0.00 0.00 0.00 77 1015.1
20221001151232 63 88 3.0 4.0 0.00 0.00 0.00 76 1015.1
20221001150732 63 0 1.0 4.0 0.00 0.00 0.00 78 1015.1
20221001150232 62 44 3.0 4.0 0.00 0.00 0.00 78 1015.1
20221001145731 62 132 1.0 3.0 0.00 0.00 0.00 77 1014.8
20221001145230 62 88 1.0 4.0 0.00 0.00 0.00 79 1015.1
20221001144730 61 0 0.0 0.0 0.00 0.00 0.00 80 1015.1
20221001144230 60 132 0.0 1.0 0.00 0.00 0.00 80 1015.1
20221001143728 60 0 0.0 1.0 0.00 0.00 0.00 82 1015.1
20221001143227 60 0 0.0 1.0 0.00 0.00 0.00 81 1015.1
20221001142727 59 264 0.0 0.0 0.00 0.00 0.00 82 1015.1
20221001142225 59 176 0.0 1.0 0.00 0.00 0.00 83 1015.1
20221001141725 59 0 0.0 3.0 0.00 0.00 0.00 83 1014.8
20221001141225 58 0 1.0 3.0 0.00 0.00 0.00 83 1014.8
20221001140723 58 0 1.0 3.0 0.00 0.00 0.00 84 1014.8
20221001140223 57 88 0.0 1.0 0.00 0.00 0.00 84 1014.8
20221001135723 57 44 0.0 3.0 0.00 0.00 0.00 85 1014.8
20221001135223 57 0 0.0 0.0 0.00 0.00 0.00 86 1014.8
20221001134722 56 0 0.0 1.0 0.00 0.00 0.00 86 1014.5
20221001134222 56 0 0.0 0.0 0.00 0.00 0.00 86 1014.5
20221001133722 56 0 0.0 0.0 0.00 0.00 0.00 86 1014.5
20221001133222 55 0 0.0 1.0 0.00 0.00 0.00 87 1014.5
20221001132722 55 0 0.0 1.0 0.00 0.00 0.00 88 1014.5
20221001132222 55 0 0.0 1.0 0.00 0.00 0.00 88 1014.5
20221001131719 55 0 0.0 1.0 0.00 0.00 0.00 88 1014.5
20221001131218 55 0 0.0 1.0 0.00 0.00 0.00 87 1014.5
20221001130718 54 0 0.0 3.0 0.00 0.00 0.00 88 1014.5
20221001130218 54 0 0.0 1.0 0.00 0.00 0.00 88 1014.5
20221001125718 54 0 0.0 0.0 0.00 0.00 0.00 87 1014.1
20221001125218 53 264 0.0 0.0 0.00 0.00 0.00 86 1014.1
20221001124718 53 264 0.0 0.0 0.00 0.00 0.00 87 1014.1
20221001124216 53 264 0.0 0.0 0.00 0.00 0.00 87 1014.5
20221001123716 53 88 0.0 0.0 0.00 0.00 0.00 87 1014.1
20221001123215 53 88 0.0 0.0 0.00 0.00 0.00 87 1014.1
20221001122716 53 88 0.0 0.0 0.00 0.00 0.00 87 1014.1
20221001122215 53 176 0.0 0.0 0.00 0.00 0.00 87 1014.1
20221001121714 52 176 0.0 0.0 0.00 0.00 0.00 87 1014.1
20221001121214 52 176 0.0 0.0 0.00 0.00 0.00 86 1014.1
20221001120713 52 176 0.0 0.0 0.00 0.00 0.00 85 1013.7
20221001120213 52 264 0.0 0.0 0.00 0.00 0.00 83 1013.7
20221001115713 52 264 0.0 0.0 0.00 0.00 0.00 83 1013.7
20221001115213 52 0 0.0 0.0 0.00 0.00 0.00 82 1013.3
20221001114711 52 0 0.0 0.0 0.00 0.00 0.00 82 1013.3
20221001114211 52 0 0.0 0.0 0.00 0.00 0.00 82 1013.3
20221001113709 52 264 0.0 0.0 0.00 0.00 0.00 82 1013.3
20221001113208 53 264 0.0 0.0 0.00 0.00 0.00 82 1013.3
20221001112709 53 264 0.0 0.0 0.00 0.00 0.00 81 1013.3
20221001112208 53 264 0.0 0.0 0.00 0.00 0.00 81 1013.0
20221001111708 53 264 0.0 0.0 0.00 0.00 0.00 82 1013.3
20221001111207 53 88 0.0 0.0 0.00 0.00 0.00 81 1013.3
20221001110204 53 0 0.0 0.0 0.00 0.00 0.00 81 1013.0
20221001105211 54 264 0.0 0.0 0.00 0.00 0.00 81 1013.0
20221001104702 54 264 0.0 0.0 0.00 0.00 0.00 81 1012.7
20221001103701 54 264 0.0 0.0 0.00 0.00 0.00 79 1013.0
20221001103159 54 264 0.0 0.0 0.00 0.00 0.00 79 1013.0
20221001102657 54 0 0.0 0.0 0.00 0.00 0.00 79 1013.0
20221001102155 54 0 0.0 0.0 0.00 0.00 0.00 79 1012.7
20221001101653 54 88 0.0 0.0 0.00 0.00 0.00 79 1012.7
20221001101153 54 88 0.0 0.0 0.00 0.00 0.00 78 1012.7
20221001100653 54 88 0.0 0.0 0.00 0.00 0.00 78 1012.3
20221001100151 54 0 0.0 0.0 0.00 0.00 0.00 78 1012.7
20221001095651 55 88 0.0 0.0 0.00 0.00 0.00 78 1012.7
20221001095150 55 264 0.0 0.0 0.00 0.00 0.00 79 1012.7
20221001094648 55 264 0.0 0.0 0.00 0.00 0.00 79 1012.7
20221001094148 55 264 0.0 0.0 0.00 0.00 0.00 78 1012.7
20221001093647 55 88 0.0 0.0 0.00 0.00 0.00 78 1012.7
20221001093145 55 264 0.0 0.0 0.00 0.00 0.00 78 1012.7
20221001092644 55 264 0.0 0.0 0.00 0.00 0.00 78 1012.3
20221001092143 55 264 0.0 1.0 0.00 0.00 0.00 78 1012.3
20221001091643 55 264 0.0 1.0 0.00 0.00 0.00 78 1012.3
20221001091143 55 220 1.0 3.0 0.00 0.00 0.00 78 1012.3
20221001090643 56 264 0.0 0.0 0.00 0.00 0.00 78 1012.3
20221001044608 59 0 4.0 8.0 0.00 0.00 0.00 67 1013.7
20221001044106 59 0 4.0 9.0 0.00 0.00 0.00 67 1013.7
20221001043605 59 0 3.0 4.0 0.00 0.00 0.00 67 1013.7
20221001043104 59 308 4.0 7.0 0.00 0.00 0.00 67 1013.7
20221001042604 59 264 4.0 5.0 0.00 0.00 0.00 66 1013.7
20221001042104 59 308 3.0 7.0 0.00 0.00 0.00 66 1014.1
20221001041602 59 0 3.0 5.0 0.00 0.00 0.00 66 1013.7
20221001041102 59 264 4.0 7.0 0.00 0.00 0.00 65 1014.1
20221001040600 59 0 3.0 7.0 0.00 0.00 0.00 65 1014.1
20221001040100 59 0 3.0 5.0 0.00 0.00 0.00 65 1014.1
20221001035558 59 0 5.0 8.0 0.00 0.00 0.00 65 1014.1
20221001035059 59 0 3.0 5.0 0.00 0.00 0.00 64 1014.1
20221001034558 59 0 3.0 4.0 0.00 0.00 0.00 64 1014.1
20221001034056 59 0 4.0 8.0 0.00 0.00 0.00 64 1014.5
20221001033556 59 0 1.0 4.0 0.00 0.00 0.00 64 1014.5
20221001033056 59 0 3.0 5.0 0.00 0.00 0.00 63 1014.5
20221001032555 60 308 3.0 5.0 0.00 0.00 0.00 63 1014.5
20221001032055 60 0 4.0 7.0 0.00 0.00 0.00 63 1014.5
20221001031554 60 308 3.0 8.0 0.00 0.00 0.00 62 1014.5
20221001031054 60 0 3.0 7.0 0.00 0.00 0.00 62 1014.5
20221001030554 60 0 8.0 12.0 0.00 0.00 0.00 62 1014.5
20221001030054 60 0 3.0 5.0 0.00 0.00 0.00 62 1014.5
20221001025553 60 0 5.0 12.0 0.00 0.00 0.00 62 1014.5